sensor_id;sensor_type;location;lat;lon;timestamp;temperature;humidity
25906;DHT22;13713;52.552;13.204;2023-05-23T00:01:35;21.70;58.90
25906;DHT22;13713;52.552;13.204;2023-05-23T00:04:04;21.70;58.90
25906;DHT22;13713;52.552;13.204;2023-05-23T00:06:30;21.70;58.90
25906;DHT22;13713;52.552;13.204;2023-05-23T00:08:56;21.70;58.90
25906;DHT22;13713;52.552;13.204;2023-05-23T00:11:22;21.70;58.90
25906;DHT22;13713;52.552;13.204;2023-05-23T00:13:52;21.70;59.00
25906;DHT22;13713;52.552;13.204;2023-05-23T00:16:18;21.60;58.90
25906;DHT22;13713;52.552;13.204;2023-05-23T00:18:44;21.60;58.90
25906;DHT22;13713;52.552;13.204;2023-05-23T00:21:10;21.70;59.00
25906;DHT22;13713;52.552;13.204;2023-05-23T00:23:38;21.60;58.90
25906;DHT22;13713;52.552;13.204;2023-05-23T00:26:07;21.60;58.90
25906;DHT22;13713;52.552;13.204;2023-05-23T00:28:33;21.60;58.90
25906;DHT22;13713;52.552;13.204;2023-05-23T00:30:59;21.60;59.00
25906;DHT22;13713;52.552;13.204;2023-05-23T00:33:25;21.60;59.00
25906;DHT22;13713;52.552;13.204;2023-05-23T00:35:51;21.60;59.00
25906;DHT22;13713;52.552;13.204;2023-05-23T00:38:17;21.60;59.00
25906;DHT22;13713;52.552;13.204;2023-05-23T00:40:42;21.60;59.00
25906;DHT22;13713;52.552;13.204;2023-05-23T00:43:08;21.60;59.00
25906;DHT22;13713;52.552;13.204;2023-05-23T00:45:34;21.60;59.00
25906;DHT22;13713;52.552;13.204;2023-05-23T00:48:00;21.60;59.00
25906;DHT22;13713;52.552;13.204;2023-05-23T00:50:27;21.60;59.00
25906;DHT22;13713;52.552;13.204;2023-05-23T00:52:55;21.50;59.00
25906;DHT22;13713;52.552;13.204;2023-05-23T00:55:25;21.60;59.00
25906;DHT22;13713;52.552;13.204;2023-05-23T00:57:53;21.60;59.10
25906;DHT22;13713;52.552;13.204;2023-05-23T01:00:23;21.60;59.10
25906;DHT22;13713;52.552;13.204;2023-05-23T01:02:50;21.60;59.10
25906;DHT22;13713;52.552;13.204;2023-05-23T01:05:17;21.60;59.10
25906;DHT22;13713;52.552;13.204;2023-05-23T01:07:44;21.60;59.10
25906;DHT22;13713;52.552;13.204;2023-05-23T01:10:10;21.60;59.10
25906;DHT22;13713;52.552;13.204;2023-05-23T01:15:14;21.60;59.10
25906;DHT22;13713;52.552;13.204;2023-05-23T01:18:01;21.50;59.10
25906;DHT22;13713;52.552;13.204;2023-05-23T01:20:42;21.50;59.10
25906;DHT22;13713;52.552;13.204;2023-05-23T01:28:54;21.50;59.20
25906;DHT22;13713;52.552;13.204;2023-05-23T01:31:23;21.50;59.10
25906;DHT22;13713;52.552;13.204;2023-05-23T01:33:50;21.50;59.10
25906;DHT22;13713;52.552;13.204;2023-05-23T01:36:18;21.50;59.20
25906;DHT22;13713;52.552;13.204;2023-05-23T01:38:44;21.50;59.20
25906;DHT22;13713;52.552;13.204;2023-05-23T01:41:09;21.50;59.20
25906;DHT22;13713;52.552;13.204;2023-05-23T01:43:36;21.50;59.20
25906;DHT22;13713;52.552;13.204;2023-05-23T01:46:03;21.50;59.20
25906;DHT22;13713;52.552;13.204;2023-05-23T01:48:30;21.50;59.20
25906;DHT22;13713;52.552;13.204;2023-05-23T01:50:57;21.50;59.20
25906;DHT22;13713;52.552;13.204;2023-05-23T01:53:24;21.50;59.20
25906;DHT22;13713;52.552;13.204;2023-05-23T01:55:51;21.50;59.20
25906;DHT22;13713;52.552;13.204;2023-05-23T01:58:20;21.50;59.20
25906;DHT22;13713;52.552;13.204;2023-05-23T02:00:45;21.50;59.30
25906;DHT22;13713;52.552;13.204;2023-05-23T02:03:11;21.50;59.20
25906;DHT22;13713;52.552;13.204;2023-05-23T02:05:37;21.50;59.30
25906;DHT22;13713;52.552;13.204;2023-05-23T02:08:03;21.40;59.20
25906;DHT22;13713;52.552;13.204;2023-05-23T02:10:28;21.50;59.30
25906;DHT22;13713;52.552;13.204;2023-05-23T02:12:54;21.40;59.20
25906;DHT22;13713;52.552;13.204;2023-05-23T02:15:20;21.50;59.30
25906;DHT22;13713;52.552;13.204;2023-05-23T02:17:45;21.40;59.30
25906;DHT22;13713;52.552;13.204;2023-05-23T02:20:12;21.40;59.30
25906;DHT22;13713;52.552;13.204;2023-05-23T02:22:39;21.40;59.30
25906;DHT22;13713;52.552;13.204;2023-05-23T02:25:05;21.40;59.30
25906;DHT22;13713;52.552;13.204;2023-05-23T02:27:31;21.40;59.30
25906;DHT22;13713;52.552;13.204;2023-05-23T02:29:57;21.50;59.40
25906;DHT22;13713;52.552;13.204;2023-05-23T02:32:22;21.40;59.30
25906;DHT22;13713;52.552;13.204;2023-05-23T02:34:49;21.40;59.30
25906;DHT22;13713;52.552;13.204;2023-05-23T02:37:15;21.40;59.30
25906;DHT22;13713;52.552;13.204;2023-05-23T02:39:44;21.40;60.00
25906;DHT22;13713;52.552;13.204;2023-05-23T02:42:10;21.40;59.40
25906;DHT22;13713;52.552;13.204;2023-05-23T02:44:36;21.40;59.40
25906;DHT22;13713;52.552;13.204;2023-05-23T02:47:02;21.40;59.40
25906;DHT22;13713;52.552;13.204;2023-05-23T02:49:27;21.40;59.40
25906;DHT22;13713;52.552;13.204;2023-05-23T02:51:53;21.40;59.40
25906;DHT22;13713;52.552;13.204;2023-05-23T02:54:19;21.40;59.40
25906;DHT22;13713;52.552;13.204;2023-05-23T02:56:46;21.40;59.40
25906;DHT22;13713;52.552;13.204;2023-05-23T02:59:11;21.40;59.40
25906;DHT22;13713;52.552;13.204;2023-05-23T03:01:38;21.40;59.40
25906;DHT22;13713;52.552;13.204;2023-05-23T03:04:03;21.40;59.40
25906;DHT22;13713;52.552;13.204;2023-05-23T03:06:30;21.40;60.00
25906;DHT22;13713;52.552;13.204;2023-05-23T03:08:59;21.40;59.40
25906;DHT22;13713;52.552;13.204;2023-05-23T03:11:25;21.40;59.50
25906;DHT22;13713;52.552;13.204;2023-05-23T03:13:50;21.40;59.50
25906;DHT22;13713;52.552;13.204;2023-05-23T03:16:16;21.40;59.50
25906;DHT22;13713;52.552;13.204;2023-05-23T03:18:42;21.40;59.50
25906;DHT22;13713;52.552;13.204;2023-05-23T03:21:08;21.40;59.70
25906;DHT22;13713;52.552;13.204;2023-05-23T03:23:34;21.40;59.50
25906;DHT22;13713;52.552;13.204;2023-05-23T03:26:02;21.40;59.50
25906;DHT22;13713;52.552;13.204;2023-05-23T03:28:30;21.40;59.50
25906;DHT22;13713;52.552;13.204;2023-05-23T03:30:56;21.40;59.50
25906;DHT22;13713;52.552;13.204;2023-05-23T03:33:22;21.30;59.50
25906;DHT22;13713;52.552;13.204;2023-05-23T03:35:48;21.40;59.50
25906;DHT22;13713;52.552;13.204;2023-05-23T03:38:14;21.40;59.50
25906;DHT22;13713;52.552;13.204;2023-05-23T03:40:39;21.30;59.40
25906;DHT22;13713;52.552;13.204;2023-05-23T03:43:06;21.30;59.40
25906;DHT22;13713;52.552;13.204;2023-05-23T03:45:35;21.40;59.50
25906;DHT22;13713;52.552;13.204;2023-05-23T03:48:04;21.30;59.40
25906;DHT22;13713;52.552;13.204;2023-05-23T03:50:30;21.30;59.40
25906;DHT22;13713;52.552;13.204;2023-05-23T03:52:56;21.30;59.40
25906;DHT22;13713;52.552;13.204;2023-05-23T03:55:23;21.30;59.40
25906;DHT22;13713;52.552;13.204;2023-05-23T03:57:50;21.30;59.40
25906;DHT22;13713;52.552;13.204;2023-05-23T04:00:18;21.30;59.40
25906;DHT22;13713;52.552;13.204;2023-05-23T04:02:45;21.30;59.30
25906;DHT22;13713;52.552;13.204;2023-05-23T04:05:14;21.30;59.40
25906;DHT22;13713;52.552;13.204;2023-05-23T04:07:41;21.30;59.30
25906;DHT22;13713;52.552;13.204;2023-05-23T04:10:08;21.20;59.20
25906;DHT22;13713;52.552;13.204;2023-05-23T04:12:34;21.30;59.30
25906;DHT22;13713;52.552;13.204;2023-05-23T04:15:01;21.20;59.20
25906;DHT22;13713;52.552;13.204;2023-05-23T04:17:30;21.30;59.30
25906;DHT22;13713;52.552;13.204;2023-05-23T04:19:56;21.20;59.20
25906;DHT22;13713;52.552;13.204;2023-05-23T04:22:22;21.20;59.10
25906;DHT22;13713;52.552;13.204;2023-05-23T04:24:48;21.20;59.10
25906;DHT22;13713;52.552;13.204;2023-05-23T04:27:14;21.20;59.10
25906;DHT22;13713;52.552;13.204;2023-05-23T04:29:41;21.20;59.10
25906;DHT22;13713;52.552;13.204;2023-05-23T04:32:07;21.20;59.10
25906;DHT22;13713;52.552;13.204;2023-05-23T04:34:33;21.20;59.10
25906;DHT22;13713;52.552;13.204;2023-05-23T04:37:00;21.20;59.10
25906;DHT22;13713;52.552;13.204;2023-05-23T04:39:29;21.20;59.00
25906;DHT22;13713;52.552;13.204;2023-05-23T04:42:30;21.20;59.00
25906;DHT22;13713;52.552;13.204;2023-05-23T04:45:18;21.20;58.80
25906;DHT22;13713;52.552;13.204;2023-05-23T04:47:54;21.20;58.80
25906;DHT22;13713;52.552;13.204;2023-05-23T04:50:42;21.10;58.80
25906;DHT22;13713;52.552;13.204;2023-05-23T04:53:08;21.10;58.60
25906;DHT22;13713;52.552;13.204;2023-05-23T04:55:34;21.10;58.60
25906;DHT22;13713;52.552;13.204;2023-05-23T04:58:01;21.10;58.50
25906;DHT22;13713;52.552;13.204;2023-05-23T05:00:28;21.00;58.40
25906;DHT22;13713;52.552;13.204;2023-05-23T05:02:55;21.00;58.30
25906;DHT22;13713;52.552;13.204;2023-05-23T05:05:25;21.00;58.20
25906;DHT22;13713;52.552;13.204;2023-05-23T05:07:50;20.90;58.20
25906;DHT22;13713;52.552;13.204;2023-05-23T05:10:16;21.00;58.20
25906;DHT22;13713;52.552;13.204;2023-05-23T05:12:46;20.90;58.10
25906;DHT22;13713;52.552;13.204;2023-05-23T05:15:15;20.90;58.00
25906;DHT22;13713;52.552;13.204;2023-05-23T05:17:45;20.90;58.00
25906;DHT22;13713;52.552;13.204;2023-05-23T05:20:13;20.80;58.00
25906;DHT22;13713;52.552;13.204;2023-05-23T05:22:39;20.80;57.90
25906;DHT22;13713;52.552;13.204;2023-05-23T05:25:09;20.80;57.90
25906;DHT22;13713;52.552;13.204;2023-05-23T05:27:36;20.80;57.80
25906;DHT22;13713;52.552;13.204;2023-05-23T05:30:06;20.80;57.80
25906;DHT22;13713;52.552;13.204;2023-05-23T05:32:39;20.80;57.80
25906;DHT22;13713;52.552;13.204;2023-05-23T05:35:07;20.80;57.80
25906;DHT22;13713;52.552;13.204;2023-05-23T05:37:34;20.80;57.70
25906;DHT22;13713;52.552;13.204;2023-05-23T05:39:59;20.80;57.70
25906;DHT22;13713;52.552;13.204;2023-05-23T05:42:33;20.70;57.70
25906;DHT22;13713;52.552;13.204;2023-05-23T05:44:59;20.70;57.60
25906;DHT22;13713;52.552;13.204;2023-05-23T05:47:24;20.70;57.60
25906;DHT22;13713;52.552;13.204;2023-05-23T05:49:51;20.80;57.70
25906;DHT22;13713;52.552;13.204;2023-05-23T05:52:16;20.80;57.70
25906;DHT22;13713;52.552;13.204;2023-05-23T05:54:42;20.80;57.70
25906;DHT22;13713;52.552;13.204;2023-05-23T05:57:07;20.70;57.60
25906;DHT22;13713;52.552;13.204;2023-05-23T05:59:33;20.70;57.60
25906;DHT22;13713;52.552;13.204;2023-05-23T06:01:59;20.60;57.50
25906;DHT22;13713;52.552;13.204;2023-05-23T06:04:25;20.70;58.10
25906;DHT22;13713;52.552;13.204;2023-05-23T06:06:50;20.70;57.50
25906;DHT22;13713;52.552;13.204;2023-05-23T06:09:17;20.60;57.50
25906;DHT22;13713;52.552;13.204;2023-05-23T06:11:43;20.60;57.50
25906;DHT22;13713;52.552;13.204;2023-05-23T06:14:09;20.60;57.50
25906;DHT22;13713;52.552;13.204;2023-05-23T06:16:37;20.60;57.50
25906;DHT22;13713;52.552;13.204;2023-05-23T06:19:02;20.60;57.50
25906;DHT22;13713;52.552;13.204;2023-05-23T06:21:30;20.60;57.50
25906;DHT22;13713;52.552;13.204;2023-05-23T06:23:56;20.60;57.50
25906;DHT22;13713;52.552;13.204;2023-05-23T06:26:21;20.60;57.50
25906;DHT22;13713;52.552;13.204;2023-05-23T06:28:47;20.50;57.40
25906;DHT22;13713;52.552;13.204;2023-05-23T06:31:13;20.60;57.40
25906;DHT22;13713;52.552;13.204;2023-05-23T06:33:39;20.60;57.40
25906;DHT22;13713;52.552;13.204;2023-05-23T06:36:04;20.50;57.40
25906;DHT22;13713;52.552;13.204;2023-05-23T06:38:31;20.60;57.50
25906;DHT22;13713;52.552;13.204;2023-05-23T06:40:59;20.60;57.50
25906;DHT22;13713;52.552;13.204;2023-05-23T06:43:27;20.50;57.40
25906;DHT22;13713;52.552;13.204;2023-05-23T06:46:01;20.50;57.40
25906;DHT22;13713;52.552;13.204;2023-05-23T06:48:27;20.50;57.40
25906;DHT22;13713;52.552;13.204;2023-05-23T06:50:53;20.50;57.50
25906;DHT22;13713;52.552;13.204;2023-05-23T06:53:21;20.60;57.50
25906;DHT22;13713;52.552;13.204;2023-05-23T06:55:50;20.50;57.50
25906;DHT22;13713;52.552;13.204;2023-05-23T06:58:21;20.60;57.60
25906;DHT22;13713;52.552;13.204;2023-05-23T07:00:47;20.60;57.60
25906;DHT22;13713;52.552;13.204;2023-05-23T07:03:21;20.60;57.60
25906;DHT22;13713;52.552;13.204;2023-05-23T07:05:48;20.60;57.60
25906;DHT22;13713;52.552;13.204;2023-05-23T07:08:16;20.60;57.70
25906;DHT22;13713;52.552;13.204;2023-05-23T07:10:53;20.60;57.70
25906;DHT22;13713;52.552;13.204;2023-05-23T07:13:27;20.60;57.70
25906;DHT22;13713;52.552;13.204;2023-05-23T07:15:54;20.60;57.80
25906;DHT22;13713;52.552;13.204;2023-05-23T07:18:20;20.60;57.80
25906;DHT22;13713;52.552;13.204;2023-05-23T07:20:46;20.60;57.80
25906;DHT22;13713;52.552;13.204;2023-05-23T07:23:17;20.60;57.80
25906;DHT22;13713;52.552;13.204;2023-05-23T07:25:44;20.60;57.90
25906;DHT22;13713;52.552;13.204;2023-05-23T07:28:20;20.60;57.80
25906;DHT22;13713;52.552;13.204;2023-05-23T07:30:46;20.70;57.90
25906;DHT22;13713;52.552;13.204;2023-05-23T07:33:12;20.70;58.10
25906;DHT22;13713;52.552;13.204;2023-05-23T07:35:39;20.70;57.90
25906;DHT22;13713;52.552;13.204;2023-05-23T07:38:04;20.70;57.90
25906;DHT22;13713;52.552;13.204;2023-05-23T07:40:31;20.70;57.90
25906;DHT22;13713;52.552;13.204;2023-05-23T07:42:56;20.70;57.90
25906;DHT22;13713;52.552;13.204;2023-05-23T07:45:22;20.70;58.60
25906;DHT22;13713;52.552;13.204;2023-05-23T07:47:48;20.70;58.00
25906;DHT22;13713;52.552;13.204;2023-05-23T07:50:14;20.70;58.60
25906;DHT22;13713;52.552;13.204;2023-05-23T07:52:41;20.70;58.00
25906;DHT22;13713;52.552;13.204;2023-05-23T07:55:09;20.70;58.00
25906;DHT22;13713;52.552;13.204;2023-05-23T07:57:35;20.80;58.10
25906;DHT22;13713;52.552;13.204;2023-05-23T08:00:01;20.80;58.10
25906;DHT22;13713;52.552;13.204;2023-05-23T08:02:28;20.80;58.10
25906;DHT22;13713;52.552;13.204;2023-05-23T08:04:55;20.80;58.10
25906;DHT22;13713;52.552;13.204;2023-05-23T08:07:21;20.80;58.10
25906;DHT22;13713;52.552;13.204;2023-05-23T08:09:54;20.80;58.10
25906;DHT22;13713;52.552;13.204;2023-05-23T08:12:21;20.90;58.20
25906;DHT22;13713;52.552;13.204;2023-05-23T08:14:52;20.90;58.30
25906;DHT22;13713;52.552;13.204;2023-05-23T08:17:22;20.90;58.20
25906;DHT22;13713;52.552;13.204;2023-05-23T08:19:48;20.80;58.20
25906;DHT22;13713;52.552;13.204;2023-05-23T08:22:14;21.00;58.40
25906;DHT22;13713;52.552;13.204;2023-05-23T08:24:39;21.00;58.30
25906;DHT22;13713;52.552;13.204;2023-05-23T08:27:05;21.00;58.30
25906;DHT22;13713;52.552;13.204;2023-05-23T08:29:32;20.90;58.30
25906;DHT22;13713;52.552;13.204;2023-05-23T08:32:00;21.00;58.40
25906;DHT22;13713;52.552;13.204;2023-05-23T08:34:26;21.10;58.40
25906;DHT22;13713;52.552;13.204;2023-05-23T08:36:52;21.10;58.50
25906;DHT22;13713;52.552;13.204;2023-05-23T08:39:20;21.10;58.50
25906;DHT22;13713;52.552;13.204;2023-05-23T08:42:11;21.10;58.60
25906;DHT22;13713;52.552;13.204;2023-05-23T08:44:37;21.10;58.60
25906;DHT22;13713;52.552;13.204;2023-05-23T08:47:07;21.10;58.60
25906;DHT22;13713;52.552;13.204;2023-05-23T08:49:49;21.10;58.60
25906;DHT22;13713;52.552;13.204;2023-05-23T08:52:20;21.20;58.80
25906;DHT22;13713;52.552;13.204;2023-05-23T08:54:52;21.20;58.80
25906;DHT22;13713;52.552;13.204;2023-05-23T08:57:17;21.20;58.80
25906;DHT22;13713;52.552;13.204;2023-05-23T08:59:49;21.20;58.90
25906;DHT22;13713;52.552;13.204;2023-05-23T09:02:16;21.30;59.00
25906;DHT22;13713;52.552;13.204;2023-05-23T09:04:44;21.30;59.00
25906;DHT22;13713;52.552;13.204;2023-05-23T09:07:15;21.30;59.00
25906;DHT22;13713;52.552;13.204;2023-05-23T09:09:43;21.30;59.10
25906;DHT22;13713;52.552;13.204;2023-05-23T09:12:11;21.40;59.20
25906;DHT22;13713;52.552;13.204;2023-05-23T09:14:38;21.40;59.20
25906;DHT22;13713;52.552;13.204;2023-05-23T09:17:07;21.40;59.20
25906;DHT22;13713;52.552;13.204;2023-05-23T09:19:33;21.40;59.30
25906;DHT22;13713;52.552;13.204;2023-05-23T09:22:11;21.50;59.40
25906;DHT22;13713;52.552;13.204;2023-05-23T09:24:50;21.50;59.40
25906;DHT22;13713;52.552;13.204;2023-05-23T09:27:17;21.50;59.50
25906;DHT22;13713;52.552;13.204;2023-05-23T09:29:43;21.50;59.50
25906;DHT22;13713;52.552;13.204;2023-05-23T09:32:12;21.50;59.50
25906;DHT22;13713;52.552;13.204;2023-05-23T09:35:03;21.50;59.50
25906;DHT22;13713;52.552;13.204;2023-05-23T09:37:33;21.60;59.70
25906;DHT22;13713;52.552;13.204;2023-05-23T09:40:09;21.60;59.60
25906;DHT22;13713;52.552;13.204;2023-05-23T09:42:41;21.60;59.60
25906;DHT22;13713;52.552;13.204;2023-05-23T09:45:08;21.60;59.70
25906;DHT22;13713;52.552;13.204;2023-05-23T09:47:34;21.70;59.80
25906;DHT22;13713;52.552;13.204;2023-05-23T09:49:59;21.70;59.80
25906;DHT22;13713;52.552;13.204;2023-05-23T09:52:25;21.70;59.80
25906;DHT22;13713;52.552;13.204;2023-05-23T09:54:51;21.70;59.90
25906;DHT22;13713;52.552;13.204;2023-05-23T09:57:18;21.70;59.90
25906;DHT22;13713;52.552;13.204;2023-05-23T09:59:57;21.80;60.00
25906;DHT22;13713;52.552;13.204;2023-05-23T10:03:00;21.80;60.10
25906;DHT22;13713;52.552;13.204;2023-05-23T10:08:09;21.80;60.30
25906;DHT22;13713;52.552;13.204;2023-05-23T10:13:26;21.90;61.10
25906;DHT22;13713;52.552;13.204;2023-05-23T10:15:57;21.90;60.40
25906;DHT22;13713;52.552;13.204;2023-05-23T10:18:27;21.90;60.40
25906;DHT22;13713;52.552;13.204;2023-05-23T10:20:56;21.90;60.50
25906;DHT22;13713;52.552;13.204;2023-05-23T10:23:27;21.90;60.60
25906;DHT22;13713;52.552;13.204;2023-05-23T10:25:54;21.90;60.70
25906;DHT22;13713;52.552;13.204;2023-05-23T10:28:20;21.90;60.70
25906;DHT22;13713;52.552;13.204;2023-05-23T10:30:46;22.00;60.80
25906;DHT22;13713;52.552;13.204;2023-05-23T10:33:13;22.00;60.90
25906;DHT22;13713;52.552;13.204;2023-05-23T10:36:03;21.90;60.90
25906;DHT22;13713;52.552;13.204;2023-05-23T10:38:37;22.00;61.10
25906;DHT22;13713;52.552;13.204;2023-05-23T10:41:22;22.00;61.20
25906;DHT22;13713;52.552;13.204;2023-05-23T10:44:11;22.00;61.30
25906;DHT22;13713;52.552;13.204;2023-05-23T10:46:55;22.00;61.40
25906;DHT22;13713;52.552;13.204;2023-05-23T10:49:42;22.00;61.40
25906;DHT22;13713;52.552;13.204;2023-05-23T10:52:10;22.10;61.60
25906;DHT22;13713;52.552;13.204;2023-05-23T10:57:10;22.20;61.80
25906;DHT22;13713;52.552;13.204;2023-05-23T10:59:37;22.10;61.90
25906;DHT22;13713;52.552;13.204;2023-05-23T11:02:11;22.20;62.00
25906;DHT22;13713;52.552;13.204;2023-05-23T11:04:37;22.20;62.00
25906;DHT22;13713;52.552;13.204;2023-05-23T11:07:03;22.20;62.00
25906;DHT22;13713;52.552;13.204;2023-05-23T11:09:29;22.20;62.00
25906;DHT22;13713;52.552;13.204;2023-05-23T11:12:02;22.20;62.10
25906;DHT22;13713;52.552;13.204;2023-05-23T11:17:31;22.20;62.20
25906;DHT22;13713;52.552;13.204;2023-05-23T11:20:04;22.20;62.40
25906;DHT22;13713;52.552;13.204;2023-05-23T11:22:32;22.20;62.60
25906;DHT22;13713;52.552;13.204;2023-05-23T11:24:59;22.20;62.60
25906;DHT22;13713;52.552;13.204;2023-05-23T11:27:36;22.20;62.70
25906;DHT22;13713;52.552;13.204;2023-05-23T11:30:11;22.20;62.90
25906;DHT22;13713;52.552;13.204;2023-05-23T11:32:41;22.20;62.80
25906;DHT22;13713;52.552;13.204;2023-05-23T11:35:08;22.20;62.80
25906;DHT22;13713;52.552;13.204;2023-05-23T11:37:37;22.20;62.80
25906;DHT22;13713;52.552;13.204;2023-05-23T11:40:25;22.20;63.00
25906;DHT22;13713;52.552;13.204;2023-05-23T11:42:52;22.20;63.00
25906;DHT22;13713;52.552;13.204;2023-05-23T11:45:21;22.20;63.10
25906;DHT22;13713;52.552;13.204;2023-05-23T11:47:47;22.20;63.10
25906;DHT22;13713;52.552;13.204;2023-05-23T11:50:14;22.20;63.20
25906;DHT22;13713;52.552;13.204;2023-05-23T11:52:40;22.20;63.20
25906;DHT22;13713;52.552;13.204;2023-05-23T11:55:07;22.20;63.30
25906;DHT22;13713;52.552;13.204;2023-05-23T11:57:39;22.10;63.20
25906;DHT22;13713;52.552;13.204;2023-05-23T12:00:06;22.10;63.30
25906;DHT22;13713;52.552;13.204;2023-05-23T12:02:43;22.10;63.30
25906;DHT22;13713;52.552;13.204;2023-05-23T12:05:11;22.10;63.50
25906;DHT22;13713;52.552;13.204;2023-05-23T12:07:48;22.10;63.50
25906;DHT22;13713;52.552;13.204;2023-05-23T12:10:15;22.10;63.50
25906;DHT22;13713;52.552;13.204;2023-05-23T12:12:41;22.10;63.50
25906;DHT22;13713;52.552;13.204;2023-05-23T12:15:11;22.10;63.60
25906;DHT22;13713;52.552;13.204;2023-05-23T12:17:38;22.10;63.50
25906;DHT22;13713;52.552;13.204;2023-05-23T12:20:05;22.00;63.60
25906;DHT22;13713;52.552;13.204;2023-05-23T12:22:31;22.00;63.60
25906;DHT22;13713;52.552;13.204;2023-05-23T12:24:57;22.00;63.60
25906;DHT22;13713;52.552;13.204;2023-05-23T12:27:32;22.00;63.70
25906;DHT22;13713;52.552;13.204;2023-05-23T12:32:39;22.00;63.70
25906;DHT22;13713;52.552;13.204;2023-05-23T12:35:06;22.00;63.80
25906;DHT22;13713;52.552;13.204;2023-05-23T12:37:32;21.90;63.70
25906;DHT22;13713;52.552;13.204;2023-05-23T12:40:08;22.00;63.80
25906;DHT22;13713;52.552;13.204;2023-05-23T12:42:52;21.90;63.80
25906;DHT22;13713;52.552;13.204;2023-05-23T12:45:23;21.90;63.80
25906;DHT22;13713;52.552;13.204;2023-05-23T12:47:49;21.90;63.90
25906;DHT22;13713;52.552;13.204;2023-05-23T12:50:15;21.90;64.00
25906;DHT22;13713;52.552;13.204;2023-05-23T12:52:41;21.90;63.90
25906;DHT22;13713;52.552;13.204;2023-05-23T12:55:08;21.90;63.90
25906;DHT22;13713;52.552;13.204;2023-05-23T12:57:34;21.90;64.00
25906;DHT22;13713;52.552;13.204;2023-05-23T13:00:00;21.90;63.80
25906;DHT22;13713;52.552;13.204;2023-05-23T13:02:27;21.80;63.70
25906;DHT22;13713;52.552;13.204;2023-05-23T13:04:53;21.80;63.80
25906;DHT22;13713;52.552;13.204;2023-05-23T13:07:18;21.80;63.80
25906;DHT22;13713;52.552;13.204;2023-05-23T13:09:44;21.80;64.00
25906;DHT22;13713;52.552;13.204;2023-05-23T13:12:10;21.80;64.00
25906;DHT22;13713;52.552;13.204;2023-05-23T13:14:37;21.80;64.00
25906;DHT22;13713;52.552;13.204;2023-05-23T13:17:02;21.80;64.10
25906;DHT22;13713;52.552;13.204;2023-05-23T13:19:28;21.70;64.10
25906;DHT22;13713;52.552;13.204;2023-05-23T13:21:54;21.80;64.20
25906;DHT22;13713;52.552;13.204;2023-05-23T13:24:20;21.70;64.20
25906;DHT22;13713;52.552;13.204;2023-05-23T13:26:45;21.70;64.20
25906;DHT22;13713;52.552;13.204;2023-05-23T13:29:11;21.70;64.30
25906;DHT22;13713;52.552;13.204;2023-05-23T13:31:37;21.70;64.20
25906;DHT22;13713;52.552;13.204;2023-05-23T13:34:03;21.70;64.20
25906;DHT22;13713;52.552;13.204;2023-05-23T13:36:29;21.70;64.10
25906;DHT22;13713;52.552;13.204;2023-05-23T13:38:56;21.70;64.20
25906;DHT22;13713;52.552;13.204;2023-05-23T13:41:21;21.70;64.20
25906;DHT22;13713;52.552;13.204;2023-05-23T13:43:47;21.70;64.20
25906;DHT22;13713;52.552;13.204;2023-05-23T13:46:13;21.70;64.20
25906;DHT22;13713;52.552;13.204;2023-05-23T13:48:39;21.70;64.20
25906;DHT22;13713;52.552;13.204;2023-05-23T13:51:05;21.70;64.30
25906;DHT22;13713;52.552;13.204;2023-05-23T13:53:30;21.70;64.30
25906;DHT22;13713;52.552;13.204;2023-05-23T13:55:56;21.70;64.30
25906;DHT22;13713;52.552;13.204;2023-05-23T13:58:22;21.80;64.30
25906;DHT22;13713;52.552;13.204;2023-05-23T14:00:47;21.80;64.40
25906;DHT22;13713;52.552;13.204;2023-05-23T14:03:13;21.80;64.40
25906;DHT22;13713;52.552;13.204;2023-05-23T14:05:40;21.80;64.40
25906;DHT22;13713;52.552;13.204;2023-05-23T14:08:05;21.80;64.40
25906;DHT22;13713;52.552;13.204;2023-05-23T14:10:31;21.90;64.50
25906;DHT22;13713;52.552;13.204;2023-05-23T14:13:00;21.90;64.60
25906;DHT22;13713;52.552;13.204;2023-05-23T14:15:26;21.90;64.50
25906;DHT22;13713;52.552;13.204;2023-05-23T14:17:52;21.90;64.50
25906;DHT22;13713;52.552;13.204;2023-05-23T14:20:20;21.90;64.50
25906;DHT22;13713;52.552;13.204;2023-05-23T14:22:47;22.00;64.50
25906;DHT22;13713;52.552;13.204;2023-05-23T14:25:14;22.00;64.50
25906;DHT22;13713;52.552;13.204;2023-05-23T14:27:39;22.00;64.50
25906;DHT22;13713;52.552;13.204;2023-05-23T14:30:06;22.00;64.50
25906;DHT22;13713;52.552;13.204;2023-05-23T14:32:32;22.00;64.50
25906;DHT22;13713;52.552;13.204;2023-05-23T14:35:07;22.00;64.60
25906;DHT22;13713;52.552;13.204;2023-05-23T14:37:33;22.00;64.50
25906;DHT22;13713;52.552;13.204;2023-05-23T14:39:59;22.10;64.60
25906;DHT22;13713;52.552;13.204;2023-05-23T14:42:25;22.00;64.50
25906;DHT22;13713;52.552;13.204;2023-05-23T14:44:52;22.10;64.60
25906;DHT22;13713;52.552;13.204;2023-05-23T14:47:18;22.10;64.60
25906;DHT22;13713;52.552;13.204;2023-05-23T14:49:44;22.10;64.60
25906;DHT22;13713;52.552;13.204;2023-05-23T14:52:10;22.10;64.60
25906;DHT22;13713;52.552;13.204;2023-05-23T14:54:37;22.10;64.60
25906;DHT22;13713;52.552;13.204;2023-05-23T14:57:06;22.10;64.60
25906;DHT22;13713;52.552;13.204;2023-05-23T14:59:32;22.10;64.60
25906;DHT22;13713;52.552;13.204;2023-05-23T15:01:58;22.20;64.70
25906;DHT22;13713;52.552;13.204;2023-05-23T15:04:23;22.10;64.70
25906;DHT22;13713;52.552;13.204;2023-05-23T15:06:49;22.10;64.60
25906;DHT22;13713;52.552;13.204;2023-05-23T15:09:16;22.10;64.70
25906;DHT22;13713;52.552;13.204;2023-05-23T15:11:43;22.20;64.70
25906;DHT22;13713;52.552;13.204;2023-05-23T15:14:11;22.20;64.70
25906;DHT22;13713;52.552;13.204;2023-05-23T15:16:36;22.20;64.70
25906;DHT22;13713;52.552;13.204;2023-05-23T15:19:03;22.20;64.80
25906;DHT22;13713;52.552;13.204;2023-05-23T15:21:29;22.20;64.80
25906;DHT22;13713;52.552;13.204;2023-05-23T15:23:56;22.20;64.80
25906;DHT22;13713;52.552;13.204;2023-05-23T15:26:23;22.20;64.80
25906;DHT22;13713;52.552;13.204;2023-05-23T15:28:49;22.20;64.80
25906;DHT22;13713;52.552;13.204;2023-05-23T15:31:14;22.20;64.80
25906;DHT22;13713;52.552;13.204;2023-05-23T15:33:40;22.20;64.80
25906;DHT22;13713;52.552;13.204;2023-05-23T15:36:06;22.20;64.80
25906;DHT22;13713;52.552;13.204;2023-05-23T15:38:32;22.20;64.80
25906;DHT22;13713;52.552;13.204;2023-05-23T15:40:58;22.20;64.80
25906;DHT22;13713;52.552;13.204;2023-05-23T15:43:24;22.20;64.80